createdAt,value
2023-03-08T00:00:46.207Z,99152.31
2023-03-08T00:03:14.727Z,99144.06
2023-03-08T00:05:41.924Z,99154.09
2023-03-08T00:08:08.716Z,99145.47
2023-03-08T00:10:35.194Z,99149.97
2023-03-08T00:13:01.756Z,99148.03
2023-03-08T00:15:28.278Z,99144.06
2023-03-08T00:17:54.813Z,99151.88
2023-03-08T00:20:21.325Z,99157.69
2023-03-08T00:22:47.857Z,99156.97
2023-03-08T00:25:16.399Z,99163.78
2023-03-08T00:27:43.138Z,99153.94
2023-03-08T00:30:11.035Z,99149.44
2023-03-08T00:32:37.705Z,99148.66
2023-03-08T00:35:04.715Z,99147.59
2023-03-08T00:37:31.339Z,99151.28
2023-03-08T00:39:57.875Z,99151.41
2023-03-08T00:42:24.771Z,99148.97
2023-03-08T00:44:52.083Z,99150.41
2023-03-08T00:47:19.099Z,99147.00
2023-03-08T00:49:45.682Z,99144.69
2023-03-08T00:52:12.255Z,99155.41
2023-03-08T00:54:38.864Z,99161.03
2023-03-08T00:57:05.492Z,99161.63
2023-03-08T00:59:32.377Z,99148.91
2023-03-08T01:02:00.939Z,99149.88
2023-03-08T01:04:27.610Z,99150.78
2023-03-08T01:06:54.182Z,99148.59
2023-03-08T01:09:20.745Z,99135.59
2023-03-08T01:11:47.304Z,99136.75
2023-03-08T01:14:13.805Z,99138.72
2023-03-08T01:16:41.001Z,99127.03
2023-03-08T01:19:07.532Z,99121.06
2023-03-08T01:21:34.607Z,99135.50
2023-03-08T01:24:01.212Z,99126.00
2023-03-08T01:26:28.315Z,99121.81
2023-03-08T01:28:56.508Z,99116.81
2023-03-08T01:31:25.669Z,99120.69
2023-03-08T01:33:54.237Z,99117.56
2023-03-08T01:36:23.494Z,99118.41
2023-03-08T01:38:50.765Z,99107.75
2023-03-08T01:41:20.860Z,99106.28
2023-03-08T01:43:47.799Z,99111.44
2023-03-08T01:46:34.058Z,99111.72
2023-03-08T01:49:30.473Z,99103.28
2023-03-08T01:52:12.640Z,99103.16
2023-03-08T01:54:51.699Z,99101.19
2023-03-08T01:57:29.766Z,99095.13
2023-03-08T01:59:59.615Z,99088.81
2023-03-08T02:02:32.606Z,99077.47
2023-03-08T02:04:59.521Z,99088.78
2023-03-08T02:07:28.107Z,99073.63
2023-03-08T02:09:55.003Z,99072.31
2023-03-08T02:12:22.254Z,99067.06
2023-03-08T02:14:50.201Z,99071.34
2023-03-08T02:17:16.779Z,99065.34
2023-03-08T02:19:53.786Z,99054.72
2023-03-08T02:22:20.945Z,99056.91
2023-03-08T02:24:47.774Z,99054.88
2023-03-08T02:27:19.760Z,99045.19
2023-03-08T02:29:46.533Z,99032.50
2023-03-08T02:32:13.089Z,99035.16
2023-03-08T02:34:39.902Z,99041.75
2023-03-08T02:37:06.479Z,99032.50
2023-03-08T02:39:33.124Z,99031.75
2023-03-08T02:41:59.698Z,99036.06
2023-03-08T02:44:26.305Z,99027.94
2023-03-08T02:46:53.582Z,99028.53
2023-03-08T02:49:20.122Z,99027.56
2023-03-08T02:51:48.012Z,99026.13
2023-03-08T02:54:16.836Z,99030.31
2023-03-08T02:56:43.623Z,99030.06
2023-03-08T02:59:13.089Z,99029.25
2023-03-08T03:01:39.682Z,99034.53
2023-03-08T03:04:06.262Z,99016.44
2023-03-08T03:06:34.196Z,99018.50
2023-03-08T03:09:00.920Z,99018.00
2023-03-08T03:11:27.973Z,99010.56
2023-03-08T03:13:57.416Z,99016.31
2023-03-08T03:16:28.199Z,99016.56
2023-03-08T03:18:56.139Z,99012.13
2023-03-08T03:21:23.859Z,99014.28
2023-03-08T03:23:50.874Z,99008.19
2023-03-08T03:26:22.973Z,99013.22
2023-03-08T03:28:56.526Z,99008.19
2023-03-08T03:31:26.230Z,99008.53
2023-03-08T03:33:53.556Z,99010.31
2023-03-08T03:36:23.779Z,99006.13
2023-03-08T03:38:50.920Z,99006.13
2023-03-08T03:41:21.410Z,99006.13
2023-03-08T03:43:51.353Z,99004.56
2023-03-08T03:46:20.767Z,99005.31
2023-03-08T03:48:51.165Z,99002.06
2023-03-08T03:51:23.277Z,99005.78
2023-03-08T03:53:58.630Z,98996.81
2023-03-08T03:56:27.820Z,99009.13
2023-03-08T03:58:58.745Z,98999.22
2023-03-08T04:01:29.286Z,98982.44
2023-03-08T04:04:02.708Z,98987.34
2023-03-08T04:06:34.054Z,98985.78
2023-03-08T04:09:04.812Z,98985.19
2023-03-08T04:11:38.315Z,98984.47
2023-03-08T04:14:07.097Z,98977.16
2023-03-08T04:16:36.730Z,98964.00
2023-03-08T04:19:12.015Z,98947.72
2023-03-08T04:21:42.216Z,98951.75
2023-03-08T04:24:08.853Z,98947.81
2023-03-08T04:26:35.713Z,98949.66
2023-03-08T04:29:05.962Z,98950.72
2023-03-08T04:31:35.553Z,98954.31
2023-03-08T04:34:05.813Z,98943.56
2023-03-08T04:36:33.065Z,98939.97
2023-03-08T04:39:00.540Z,98942.63
2023-03-08T04:41:27.845Z,98932.59
2023-03-08T04:44:02.151Z,98923.78
2023-03-08T04:46:42.233Z,98924.97
2023-03-08T04:49:12.983Z,98923.97
2023-03-08T04:51:43.743Z,98919.63
2023-03-08T04:54:11.655Z,98917.38
2023-03-08T04:56:44.068Z,98906.47
2023-03-08T04:59:12.173Z,98895.25
2023-03-08T05:01:38.857Z,98885.53
2023-03-08T05:04:06.334Z,98890.59
2023-03-08T05:06:38.414Z,98890.66
2023-03-08T05:09:06.006Z,98885.94
2023-03-08T05:11:34.641Z,98888.88
2023-03-08T05:14:01.520Z,98887.59
2023-03-08T05:16:28.885Z,98879.69
2023-03-08T05:18:55.609Z,98868.41
2023-03-08T05:21:25.849Z,98873.09
2023-03-08T05:23:59.942Z,98868.13
2023-03-08T05:26:28.617Z,98868.97
2023-03-08T05:28:56.390Z,98872.34
2023-03-08T05:31:27.321Z,98871.75
2023-03-08T05:33:55.283Z,98867.16
2023-03-08T05:36:30.312Z,98863.00
2023-03-08T05:38:57.912Z,98863.59
2023-03-08T05:41:31.276Z,98856.56
2023-03-08T05:44:01.413Z,98843.03
2023-03-08T05:46:31.918Z,98838.50
2023-03-08T05:49:00.375Z,98823.84
2023-03-08T05:51:29.911Z,98824.97
2023-03-08T05:53:56.460Z,98820.09
2023-03-08T05:56:24.421Z,98814.53
2023-03-08T05:59:01.076Z,98802.81
2023-03-08T06:01:28.905Z,98798.44
2023-03-08T06:04:02.811Z,98802.94
2023-03-08T06:06:34.868Z,98802.81
2023-03-08T06:09:04.201Z,98805.41
2023-03-08T06:11:32.231Z,98795.28
2023-03-08T06:14:00.187Z,98783.00
2023-03-08T06:16:30.295Z,98788.41
2023-03-08T06:18:57.174Z,98782.31
2023-03-08T06:21:24.422Z,98787.13
2023-03-08T06:23:58.044Z,98779.06
2023-03-08T06:26:24.548Z,98767.91
2023-03-08T06:28:51.564Z,98766.06
2023-03-08T06:31:18.936Z,98767.50
2023-03-08T06:33:46.038Z,98759.84
2023-03-08T06:36:20.014Z,98762.09
2023-03-08T06:38:48.866Z,98751.81
2023-03-08T06:41:16.627Z,98749.06
2023-03-08T06:43:45.353Z,98748.00
2023-03-08T06:46:16.805Z,98745.63
2023-03-08T06:48:44.063Z,98741.09
2023-03-08T06:51:10.891Z,98742.16
2023-03-08T06:53:39.718Z,98736.06
2023-03-08T06:56:11.273Z,98737.50
2023-03-08T06:58:37.982Z,98735.13
2023-03-08T07:01:05.792Z,98736.19
2023-03-08T07:03:33.546Z,98740.84
2023-03-08T07:06:01.829Z,98729.13
2023-03-08T07:08:29.025Z,98724.22
2023-03-08T07:10:55.614Z,98721.13
2023-03-08T07:13:23.620Z,98737.34
2023-03-08T07:15:51.179Z,98735.47
2023-03-08T07:18:18.316Z,98730.56
2023-03-08T07:20:45.397Z,98735.31
2023-03-08T07:23:11.990Z,98733.81
2023-03-08T07:25:40.028Z,98731.63
2023-03-08T07:28:06.634Z,98723.41
2023-03-08T07:30:33.159Z,98723.06
2023-03-08T07:32:59.852Z,98716.09
2023-03-08T07:35:26.421Z,98721.72
2023-03-08T07:37:53.285Z,98716.78
2023-03-08T07:40:19.926Z,98714.41
2023-03-08T07:42:47.009Z,98711.94
2023-03-08T07:45:29.886Z,98718.81
2023-03-08T07:47:56.704Z,98711.84
2023-03-08T07:50:23.219Z,98718.78
2023-03-08T07:52:49.824Z,98714.19
2023-03-08T07:55:17.366Z,98705.69
2023-03-08T07:57:43.844Z,98711.28
2023-03-08T08:00:11.119Z,98707.03
2023-03-08T08:02:40.600Z,98700.78
2023-03-08T08:05:07.430Z,98706.25
2023-03-08T08:07:34.047Z,98697.66
2023-03-08T08:10:00.560Z,98699.09
2023-03-08T08:12:27.297Z,98691.34
2023-03-08T08:14:53.813Z,98687.94
2023-03-08T08:17:21.357Z,98682.19
2023-03-08T08:19:48.499Z,98686.00
2023-03-08T08:22:15.123Z,98671.69
2023-03-08T08:24:41.747Z,98680.16
2023-03-08T08:27:08.330Z,98674.50
2023-03-08T08:29:34.821Z,98668.13
2023-03-08T08:32:02.999Z,98661.38
2023-03-08T08:34:29.589Z,98659.50
2023-03-08T08:36:56.667Z,98652.69
2023-03-08T08:39:23.355Z,98655.03
2023-03-08T08:41:50.618Z,98646.44
2023-03-08T08:44:18.176Z,98648.44
2023-03-08T08:46:44.748Z,98643.59
2023-03-08T08:49:11.495Z,98640.28
2023-03-08T08:51:38.286Z,98633.16
2023-03-08T08:54:04.989Z,98633.75
2023-03-08T08:56:31.609Z,98625.75
2023-03-08T08:59:01.684Z,98629.47
2023-03-08T09:01:31.672Z,98624.78
2023-03-08T09:03:59.259Z,98627.41
2023-03-08T09:06:27.498Z,98619.53
2023-03-08T09:08:56.525Z,98628.22
2023-03-08T09:11:24.758Z,98622.03
2023-03-08T09:13:51.865Z,98626.94
2023-03-08T09:16:27.842Z,98616.28
2023-03-08T09:18:56.703Z,98607.13
2023-03-08T09:21:24.326Z,98600.66
2023-03-08T09:23:51.116Z,98585.97
2023-03-08T09:26:18.473Z,98586.50
2023-03-08T09:28:45.468Z,98584.09
2023-03-08T09:31:18.076Z,98579.81
2023-03-08T09:33:48.328Z,98574.19
2023-03-08T09:36:16.307Z,98574.53
2023-03-08T09:38:43.024Z,98572.41
2023-03-08T09:41:41.065Z,98567.38
2023-03-08T09:44:29.105Z,98573.00
2023-03-08T09:47:05.214Z,98573.88
2023-03-08T09:49:37.515Z,98570.31
2023-03-08T09:52:43.272Z,98560.50
2023-03-08T09:55:19.066Z,98561.72
2023-03-08T09:57:56.807Z,98554.47
2023-03-08T10:00:31.821Z,98555.66
2023-03-08T10:03:25.870Z,98557.72
2023-03-08T10:06:24.973Z,98559.50
2023-03-08T10:09:01.821Z,98552.69
2023-03-08T10:11:37.334Z,98553.91
2023-03-08T10:14:20.500Z,98550.91
2023-03-08T10:16:52.123Z,98545.16
2023-03-08T10:19:51.168Z,98531.81
2023-03-08T10:22:27.403Z,98532.06
2023-03-08T10:25:16.141Z,98537.28
2023-03-08T10:27:42.709Z,98533.97
2023-03-08T10:30:19.679Z,98517.53
2023-03-08T10:32:49.659Z,98514.22
2023-03-08T10:35:17.088Z,98504.19
2023-03-08T10:37:50.857Z,98494.00
2023-03-08T10:40:21.229Z,98486.03
2023-03-08T10:43:02.521Z,98477.56
2023-03-08T10:45:30.561Z,98480.44
2023-03-08T10:47:58.466Z,98472.81
2023-03-08T10:50:29.132Z,98490.56
2023-03-08T10:52:56.218Z,98483.53
2023-03-08T10:55:29.202Z,98476.03
2023-03-08T10:57:59.578Z,98492.84
2023-03-08T11:00:32.243Z,98488.88
2023-03-08T11:03:19.994Z,98487.00
2023-03-08T11:06:05.523Z,98497.59
2023-03-08T11:08:35.654Z,98490.56
2023-03-08T11:11:13.518Z,98491.53
2023-03-08T11:13:42.431Z,98490.22
2023-03-08T11:16:41.013Z,98499.34
2023-03-08T11:19:35.364Z,98487.03
2023-03-08T11:22:07.565Z,98491.22
2023-03-08T11:24:58.625Z,98483.78
2023-03-08T11:27:55.918Z,98475.66
2023-03-08T11:31:01.259Z,98462.41
2023-03-08T11:33:48.899Z,98462.31
2023-03-08T11:36:30.046Z,98465.63
2023-03-08T11:39:19.702Z,98465.91
2023-03-08T11:41:59.507Z,98460.84
2023-03-08T11:44:34.067Z,98458.09
2023-03-08T11:47:18.877Z,98463.16
2023-03-08T11:50:05.810Z,98476.34
2023-03-08T11:53:06.888Z,98480.53
2023-03-08T11:55:33.492Z,98474.69
2023-03-08T11:58:14.075Z,98472.06
2023-03-08T12:00:43.484Z,98458.47
2023-03-08T12:03:17.512Z,98450.09
2023-03-08T12:05:52.477Z,98440.22
2023-03-08T12:08:27.207Z,98446.91
2023-03-08T12:11:01.823Z,98449.78
2023-03-08T12:13:38.003Z,98445.94
2023-03-08T12:16:19.332Z,98443.69
2023-03-08T12:18:56.128Z,98444.03
2023-03-08T12:21:46.740Z,98444.63
2023-03-08T12:24:40.936Z,98442.97
2023-03-08T12:27:30.022Z,98448.47
2023-03-08T12:30:14.993Z,98445.69
2023-03-08T12:32:43.407Z,98452.28
2023-03-08T12:35:22.346Z,98442.38
2023-03-08T12:38:04.960Z,98435.94
2023-03-08T12:40:47.000Z,98425.03
2023-03-08T12:43:35.343Z,98407.03
2023-03-08T12:46:11.585Z,98395.53
2023-03-08T12:48:48.827Z,98378.03
2023-03-08T12:51:16.322Z,98393.19
2023-03-08T12:53:51.996Z,98401.41
2023-03-08T12:56:32.823Z,98394.16
2023-03-08T12:59:01.116Z,98399.03
2023-03-08T13:01:40.642Z,98394.00
2023-03-08T13:04:41.917Z,98401.16
2023-03-08T13:07:41.240Z,98393.31
2023-03-08T13:10:31.213Z,98409.19
2023-03-08T13:13:09.833Z,98403.69
2023-03-08T13:15:38.992Z,98398.31
2023-03-08T13:18:11.379Z,98395.22
2023-03-08T13:20:42.002Z,98390.19
2023-03-08T13:23:29.007Z,98394.13
2023-03-08T13:26:01.509Z,98400.78
2023-03-08T13:28:46.069Z,98402.19
2023-03-08T13:31:18.398Z,98401.22
2023-03-08T13:33:59.073Z,98390.94
2023-03-08T13:36:28.772Z,98390.44
2023-03-08T13:39:00.236Z,98383.50
2023-03-08T13:41:40.268Z,98381.16
2023-03-08T13:44:14.156Z,98379.19
2023-03-08T13:46:42.909Z,98382.53
2023-03-08T13:49:29.674Z,98374.78
2023-03-08T13:51:59.633Z,98372.03
2023-03-08T13:54:32.830Z,98373.13
2023-03-08T13:57:03.064Z,98360.22
2023-03-08T13:59:30.376Z,98364.09
2023-03-08T14:01:57.788Z,98358.88
2023-03-08T14:04:30.515Z,98353.66
2023-03-08T14:06:59.665Z,98351.16
2023-03-08T14:09:27.181Z,98352.31
2023-03-08T14:12:00.810Z,98348.19
2023-03-08T14:14:40.581Z,98341.84
2023-03-08T14:17:13.084Z,98333.41
2023-03-08T14:19:40.400Z,98315.56
2023-03-08T14:22:14.111Z,98312.41
2023-03-08T14:24:43.376Z,98314.00
2023-03-08T14:27:15.834Z,98320.56
2023-03-08T14:29:44.429Z,98317.09
2023-03-08T14:32:11.283Z,98326.22
2023-03-08T14:34:49.239Z,98327.41
2023-03-08T14:37:28.715Z,98330.66
2023-03-08T14:40:16.585Z,98334.56
2023-03-08T14:42:46.227Z,98341.72
2023-03-08T14:45:23.627Z,98325.06
2023-03-08T14:48:18.147Z,98324.44
2023-03-08T14:51:17.055Z,98326.34
2023-03-08T14:53:43.715Z,98330.25
2023-03-08T14:56:16.347Z,98327.34
2023-03-08T14:58:46.733Z,98316.91
2023-03-08T15:01:24.676Z,98299.94
2023-03-08T15:03:51.339Z,98294.75
2023-03-08T15:06:24.900Z,98306.75
2023-03-08T15:08:52.003Z,98307.41
2023-03-08T15:11:18.721Z,98298.41
2023-03-08T15:13:46.006Z,98306.66
2023-03-08T15:16:14.523Z,98304.06
2023-03-08T15:18:41.648Z,98303.06
2023-03-08T15:21:13.840Z,98306.75
2023-03-08T15:23:42.781Z,98310.38
2023-03-08T15:26:16.685Z,98320.38
2023-03-08T15:28:43.265Z,98316.03
2023-03-08T15:31:09.792Z,98317.31
2023-03-08T15:33:36.305Z,98322.47
2023-03-08T15:36:03.154Z,98320.50
2023-03-08T15:38:29.767Z,98317.22
2023-03-08T15:40:56.251Z,98312.78
2023-03-08T15:43:22.803Z,98317.06
2023-03-08T15:45:49.276Z,98329.06
2023-03-08T15:48:18.197Z,98318.41
2023-03-08T15:50:45.146Z,98320.97
2023-03-08T15:53:13.386Z,98315.00
2023-03-08T15:55:43.438Z,98316.91
2023-03-08T15:58:11.989Z,98325.53
2023-03-08T16:00:39.551Z,98327.84
2023-03-08T16:03:06.487Z,98328.38
2023-03-08T16:05:33.281Z,98317.91
2023-03-08T16:08:02.460Z,98323.56
2023-03-08T16:10:33.100Z,98322.28
2023-03-08T16:12:59.632Z,98318.06
2023-03-08T16:15:26.357Z,98320.13
2023-03-08T16:17:52.978Z,98327.50
2023-03-08T16:20:20.566Z,98324.09
2023-03-08T16:22:47.092Z,98325.88
2023-03-08T16:25:13.690Z,98315.63
2023-03-08T16:27:40.273Z,98308.41
2023-03-08T16:30:07.683Z,98308.56
2023-03-08T16:32:34.502Z,98303.81
2023-03-08T16:35:01.015Z,98299.66
2023-03-08T16:37:28.174Z,98303.72
2023-03-08T16:39:57.334Z,98310.19
2023-03-08T16:42:24.081Z,98299.50
2023-03-08T16:44:53.074Z,98300.19
2023-03-08T16:47:21.102Z,98305.19
2023-03-08T16:49:47.660Z,98305.00
2023-03-08T16:52:15.860Z,98315.72
2023-03-08T16:54:42.771Z,98309.91
2023-03-08T16:57:19.783Z,98303.91
2023-03-08T16:59:47.724Z,98310.56
2023-03-08T17:02:21.552Z,98310.56
2023-03-08T17:04:49.197Z,98307.25
2023-03-08T17:07:17.368Z,98303.84
2023-03-08T17:09:44.001Z,98311.22
2023-03-08T17:12:10.755Z,98304.19
2023-03-08T17:14:37.581Z,98302.97
2023-03-08T17:17:04.991Z,98291.91
2023-03-08T17:19:31.745Z,98294.50
2023-03-08T17:21:58.222Z,98289.06
2023-03-08T17:24:27.733Z,98280.91
2023-03-08T17:26:54.667Z,98277.06
2023-03-08T17:29:22.211Z,98279.75
2023-03-08T17:31:48.885Z,98288.94
2023-03-08T17:34:15.654Z,98290.81
2023-03-08T17:36:42.510Z,98300.94
2023-03-08T17:39:09.712Z,98292.75
2023-03-08T17:41:38.387Z,98304.06
2023-03-08T17:44:05.006Z,98308.56
2023-03-08T17:46:31.783Z,98309.31
2023-03-08T17:48:58.403Z,98311.75
2023-03-08T17:51:29.181Z,98317.97
2023-03-08T17:53:59.719Z,98318.72
2023-03-08T17:56:29.848Z,98312.06
2023-03-08T17:58:58.233Z,98324.22
2023-03-08T18:01:30.027Z,98321.66
2023-03-08T18:03:57.661Z,98319.13
2023-03-08T18:06:31.576Z,98317.44
2023-03-08T18:08:59.764Z,98313.03
2023-03-08T18:11:26.929Z,98307.06
2023-03-08T18:13:54.511Z,98305.44
2023-03-08T18:16:22.091Z,98307.16
2023-03-08T18:18:50.062Z,98309.72
2023-03-08T18:21:17.904Z,98306.81
2023-03-08T18:23:45.604Z,98302.09
2023-03-08T18:26:13.829Z,98296.75
2023-03-08T18:28:40.696Z,98295.09
2023-03-08T18:31:09.048Z,98302.06
2023-03-08T18:33:36.329Z,98303.50
2023-03-08T18:36:03.682Z,98298.00
2023-03-08T18:38:30.280Z,98300.50
2023-03-08T18:40:56.799Z,98297.56
2023-03-08T18:43:25.106Z,98302.69
2023-03-08T18:45:53.618Z,98296.91
2023-03-08T18:48:21.435Z,98296.25
2023-03-08T18:50:48.145Z,98293.56
2023-03-08T18:53:18.178Z,98291.41
2023-03-08T18:55:55.779Z,98278.59
2023-03-08T18:58:22.865Z,98275.19
2023-03-08T19:00:49.479Z,98276.69
2023-03-08T19:03:16.176Z,98276.75
2023-03-08T19:05:43.064Z,98274.28
2023-03-08T19:08:09.874Z,98274.00
2023-03-08T19:10:36.458Z,98270.59
2023-03-08T19:13:03.163Z,98278.13
2023-03-08T19:15:29.667Z,98263.00
2023-03-08T19:17:57.924Z,98264.88
2023-03-08T19:20:26.400Z,98264.44
2023-03-08T19:22:53.579Z,98256.53
2023-03-08T19:25:20.185Z,98254.25
2023-03-08T19:27:46.847Z,98251.69
2023-03-08T19:30:13.953Z,98265.69
2023-03-08T19:32:42.563Z,98269.44
2023-03-08T19:35:09.521Z,98258.44
2023-03-08T19:37:36.192Z,98267.50
2023-03-08T19:40:05.346Z,98271.75
2023-03-08T19:42:31.933Z,98273.00
2023-03-08T19:44:58.422Z,98262.28
2023-03-08T19:47:24.986Z,98258.22
2023-03-08T19:49:51.540Z,98257.78
2023-03-08T19:52:18.281Z,98257.69
2023-03-08T19:54:46.068Z,98256.53
2023-03-08T19:57:12.956Z,98253.63
2023-03-08T19:59:39.490Z,98257.03
2023-03-08T20:02:08.628Z,98260.69
2023-03-08T20:04:36.427Z,98247.28
2023-03-08T20:07:04.647Z,98252.34
2023-03-08T20:09:31.399Z,98260.94
2023-03-08T20:11:59.137Z,98254.44
2023-03-08T20:14:29.255Z,98259.59
2023-03-08T20:16:56.703Z,98252.69
2023-03-08T20:19:23.458Z,98248.28
2023-03-08T20:21:50.152Z,98248.28
2023-03-08T20:24:18.654Z,98247.69
2023-03-08T20:26:45.779Z,98245.28
2023-03-08T20:29:12.380Z,98239.38
2023-03-08T20:31:39.014Z,98246.38
2023-03-08T20:34:05.670Z,98250.13
2023-03-08T20:36:32.364Z,98248.28
2023-03-08T20:38:59.306Z,98247.63
2023-03-08T20:41:26.470Z,98251.88
2023-03-08T20:43:55.412Z,98254.59
2023-03-08T20:46:25.992Z,98252.88
2023-03-08T20:48:52.636Z,98256.69
2023-03-08T20:51:21.449Z,98257.53
2023-03-08T20:53:50.303Z,98252.94
2023-03-08T20:56:18.710Z,98245.63
2023-03-08T20:58:45.865Z,98241.78
2023-03-08T21:01:18.834Z,98233.41
2023-03-08T21:03:46.342Z,98233.50
2023-03-08T21:06:24.736Z,98235.63
2023-03-08T21:08:51.779Z,98235.31
2023-03-08T21:11:19.468Z,98229.66
2023-03-08T21:13:48.265Z,98225.97
2023-03-08T21:16:16.377Z,98230.31
2023-03-08T21:18:46.181Z,98233.88
2023-03-08T21:21:30.037Z,98219.00
2023-03-08T21:23:58.645Z,98223.00
2023-03-08T21:26:26.332Z,98221.47
2023-03-08T21:28:55.676Z,98223.56
2023-03-08T21:31:23.362Z,98216.69
2023-03-08T21:33:50.504Z,98208.34
2023-03-08T21:36:18.161Z,98218.16
2023-03-08T21:38:45.092Z,98206.03
2023-03-08T21:41:23.059Z,98197.84
2023-03-08T21:43:50.150Z,98202.78
2023-03-08T21:46:17.596Z,98197.41
2023-03-08T21:48:44.747Z,98200.94
2023-03-08T21:51:11.958Z,98198.13
2023-03-08T21:53:38.779Z,98194.19
2023-03-08T21:56:14.345Z,98194.34
2023-03-08T21:58:41.378Z,98183.13
2023-03-08T22:01:18.165Z,98181.69
2023-03-08T22:03:44.799Z,98182.44
2023-03-08T22:06:11.506Z,98180.03
2023-03-08T22:08:38.080Z,98173.69
2023-03-08T22:11:05.917Z,98177.00
2023-03-08T22:13:32.855Z,98175.09
2023-03-08T22:15:59.351Z,98171.09
2023-03-08T22:18:25.974Z,98171.41
2023-03-08T22:20:55.759Z,98170.50
2023-03-08T22:23:22.535Z,98170.00
2023-03-08T22:25:49.133Z,98165.31
2023-03-08T22:28:15.775Z,98158.38
2023-03-08T22:30:42.401Z,98151.47
2023-03-08T22:33:09.534Z,98140.00
2023-03-08T22:35:36.025Z,98139.78
2023-03-08T22:38:02.540Z,98137.03
2023-03-08T22:40:29.299Z,98139.63
2023-03-08T22:42:55.907Z,98135.84
2023-03-08T22:45:22.362Z,98136.47
2023-03-08T22:47:51.256Z,98127.53
2023-03-08T22:50:17.925Z,98125.75
2023-03-08T22:52:44.483Z,98129.78
2023-03-08T22:55:11.697Z,98120.97
2023-03-08T22:57:38.460Z,98120.94
2023-03-08T23:00:14.165Z,98113.81
2023-03-08T23:02:42.196Z,98110.03
2023-03-08T23:05:12.883Z,98103.03
2023-03-08T23:07:39.609Z,98100.84
2023-03-08T23:10:06.636Z,98101.84
2023-03-08T23:12:33.463Z,98103.25
2023-03-08T23:15:00.044Z,98103.91
2023-03-08T23:17:27.318Z,98095.25
2023-03-08T23:19:53.867Z,98098.41
2023-03-08T23:22:20.608Z,98100.72
2023-03-08T23:24:47.087Z,98094.78
2023-03-08T23:27:13.740Z,98105.88
2023-03-08T23:29:40.454Z,98092.72
2023-03-08T23:32:07.510Z,98105.47
2023-03-08T23:34:34.468Z,98109.13
2023-03-08T23:37:03.776Z,98107.88
2023-03-08T23:39:31.846Z,98099.66
2023-03-08T23:41:58.340Z,98098.41
2023-03-08T23:44:24.877Z,98092.69
2023-03-08T23:46:51.596Z,98087.91
2023-03-08T23:49:18.245Z,98094.63
2023-03-08T23:51:45.374Z,98102.50
2023-03-08T23:54:12.469Z,98097.63
2023-03-08T23:56:40.467Z,98104.72
2023-03-08T23:59:14.629Z,98093.94
